sensor_id;sensor_type;location;lat;lon;timestamp;pressure;altitude;pressure_sealevel;temperature;humidity
60589;BME280;46421;48.610;9.334;2023-02-19T00:01:09;98540.59;;;10.63;77.28
60589;BME280;46421;48.610;9.334;2023-02-19T00:03:36;98528.09;;;10.63;77.33
60589;BME280;46421;48.610;9.334;2023-02-19T00:06:03;98530.28;;;10.59;77.57
60589;BME280;46421;48.610;9.334;2023-02-19T00:08:30;98523.28;;;10.58;77.04
60589;BME280;46421;48.610;9.334;2023-02-19T00:13:27;98520.31;;;10.62;77.72
60589;BME280;46421;48.610;9.334;2023-02-19T00:15:52;98523.63;;;10.55;77.02
60589;BME280;46421;48.610;9.334;2023-02-19T00:18:18;98527.28;;;10.54;77.09
60589;BME280;46421;48.610;9.334;2023-02-19T00:20:43;98532.28;;;10.57;77.67
60589;BME280;46421;48.610;9.334;2023-02-19T00:23:08;98534.22;;;10.39;78.90
60589;BME280;46421;48.610;9.334;2023-02-19T00:25:37;98521.78;;;10.48;77.71
60589;BME280;46421;48.610;9.334;2023-02-19T00:28:03;98517.94;;;10.42;78.58
60589;BME280;46421;48.610;9.334;2023-02-19T00:30:28;98525.19;;;10.23;79.56
60589;BME280;46421;48.610;9.334;2023-02-19T00:32:54;98516.94;;;10.43;78.52
60589;BME280;46421;48.610;9.334;2023-02-19T00:35:20;98516.63;;;10.46;78.07
60589;BME280;46421;48.610;9.334;2023-02-19T00:37:45;98521.97;;;10.54;77.60
60589;BME280;46421;48.610;9.334;2023-02-19T00:40:10;98518.31;;;10.47;77.86
60589;BME280;46421;48.610;9.334;2023-02-19T00:42:36;98511.97;;;10.40;78.80
60589;BME280;46421;48.610;9.334;2023-02-19T00:45:01;98506.69;;;10.48;77.79
60589;BME280;46421;48.610;9.334;2023-02-19T00:47:27;98509.00;;;10.51;77.73
60589;BME280;46421;48.610;9.334;2023-02-19T00:49:52;98514.00;;;10.54;76.92
60589;BME280;46421;48.610;9.334;2023-02-19T00:52:17;98510.34;;;10.55;77.66
60589;BME280;46421;48.610;9.334;2023-02-19T00:54:43;98510.34;;;10.55;76.79
60589;BME280;46421;48.610;9.334;2023-02-19T00:57:08;98529.09;;;10.62;76.87
60589;BME280;46421;48.610;9.334;2023-02-19T00:59:33;98514.16;;;10.44;77.82
60589;BME280;46421;48.610;9.334;2023-02-19T01:02:01;98531.25;;;10.58;76.83
60589;BME280;46421;48.610;9.334;2023-02-19T01:04:26;98529.09;;;10.62;76.83
60589;BME280;46421;48.610;9.334;2023-02-19T01:06:52;98522.63;;;10.48;77.89
60589;BME280;46421;48.610;9.334;2023-02-19T01:09:17;98520.47;;;10.52;77.90
60589;BME280;46421;48.610;9.334;2023-02-19T01:11:42;98515.66;;;10.55;77.28
60589;BME280;46421;48.610;9.334;2023-02-19T01:14:08;98522.97;;;10.53;78.25
60589;BME280;46421;48.610;9.334;2023-02-19T01:16:34;98515.66;;;10.64;76.66
60589;BME280;46421;48.610;9.334;2023-02-19T01:18:59;98506.00;;;10.54;77.45
60589;BME280;46421;48.610;9.334;2023-02-19T01:21:26;98503.84;;;10.58;77.08
60589;BME280;46421;48.610;9.334;2023-02-19T01:23:53;98493.41;;;10.56;77.22
60589;BME280;46421;48.610;9.334;2023-02-19T01:26:23;98483.91;;;10.54;77.10
60589;BME280;46421;48.610;9.334;2023-02-19T01:28:49;98474.59;;;10.50;77.19
60589;BME280;46421;48.610;9.334;2023-02-19T01:31:20;98481.09;;;10.55;77.09
60589;BME280;46421;48.610;9.334;2023-02-19T01:33:47;98493.41;;;10.56;76.74
60589;BME280;46421;48.610;9.334;2023-02-19T01:36:13;98487.91;;;10.50;77.21
60589;BME280;46421;48.610;9.334;2023-02-19T01:38:39;98484.75;;;10.54;76.96
60589;BME280;46421;48.610;9.334;2023-02-19T01:41:06;98483.25;;;10.52;77.33
60589;BME280;46421;48.610;9.334;2023-02-19T01:43:33;98478.09;;;10.50;77.14
60589;BME280;46421;48.610;9.334;2023-02-19T01:45:59;98482.41;;;10.59;77.72
60589;BME280;46421;48.610;9.334;2023-02-19T01:48:28;98478.44;;;10.55;77.11
60589;BME280;46421;48.610;9.334;2023-02-19T01:51:01;98473.94;;;10.56;77.04
60589;BME280;46421;48.610;9.334;2023-02-19T01:53:29;98475.28;;;10.52;77.79
60589;BME280;46421;48.610;9.334;2023-02-19T01:55:58;98469.78;;;10.62;76.98
60589;BME280;46421;48.610;9.334;2023-02-19T01:58:27;98471.28;;;10.48;77.17
60589;BME280;46421;48.610;9.334;2023-02-19T02:00:54;98474.78;;;10.48;77.91
60589;BME280;46421;48.610;9.334;2023-02-19T02:03:19;98475.78;;;10.55;78.08
60589;BME280;46421;48.610;9.334;2023-02-19T02:08:17;98477.09;;;10.51;78.13
60589;BME280;46421;48.610;9.334;2023-02-19T02:11:02;98473.78;;;10.49;78.32
60589;BME280;46421;48.610;9.334;2023-02-19T02:13:27;98474.59;;;10.50;78.65
60589;BME280;46421;48.610;9.334;2023-02-19T02:18:28;98484.06;;;10.52;77.88
60589;BME280;46421;48.610;9.334;2023-02-19T02:24:10;98468.63;;;10.48;78.23
60589;BME280;46421;48.610;9.334;2023-02-19T02:26:58;98474.44;;;10.51;78.25
60589;BME280;46421;48.610;9.334;2023-02-19T02:32:23;98471.78;;;10.43;77.77
60589;BME280;46421;48.610;9.334;2023-02-19T02:34:58;98475.09;;;10.53;77.38
60589;BME280;46421;48.610;9.334;2023-02-19T02:37:27;98474.44;;;10.51;77.34
60589;BME280;46421;48.610;9.334;2023-02-19T02:39:56;98473.94;;;10.48;76.83
60589;BME280;46421;48.610;9.334;2023-02-19T02:42:22;98464.16;;;10.48;77.03
60589;BME280;46421;48.610;9.334;2023-02-19T02:44:55;98459.84;;;10.55;76.47
60589;BME280;46421;48.610;9.334;2023-02-19T02:50:19;98451.66;;;10.40;76.10
60589;BME280;46421;48.610;9.334;2023-02-19T02:52:50;98454.78;;;10.36;77.03
60589;BME280;46421;48.610;9.334;2023-02-19T02:55:38;98437.53;;;10.32;76.44
60589;BME280;46421;48.610;9.334;2023-02-19T02:58:06;98453.50;;;10.40;76.39
60589;BME280;46421;48.610;9.334;2023-02-19T03:00:33;98456.81;;;10.42;76.31
60589;BME280;46421;48.610;9.334;2023-02-19T03:03:22;98452.53;;;10.41;76.98
60589;BME280;46421;48.610;9.334;2023-02-19T03:05:51;98453.66;;;10.30;77.03
60589;BME280;46421;48.610;9.334;2023-02-19T03:08:26;98443.16;;;10.28;77.76
60589;BME280;46421;48.610;9.334;2023-02-19T03:10:59;98438.19;;;10.17;77.75
60589;BME280;46421;48.610;9.334;2023-02-19T03:13:46;98440.00;;;10.25;77.39
60589;BME280;46421;48.610;9.334;2023-02-19T03:16:43;98448.47;;;10.20;77.42
60589;BME280;46421;48.610;9.334;2023-02-19T03:19:30;98438.50;;;10.14;76.94
60589;BME280;46421;48.610;9.334;2023-02-19T03:22:04;98438.50;;;10.22;77.28
60589;BME280;46421;48.610;9.334;2023-02-19T03:24:38;98433.03;;;10.24;77.62
60589;BME280;46421;48.610;9.334;2023-02-19T03:27:26;98426.56;;;10.18;77.34
60589;BME280;46421;48.610;9.334;2023-02-19T03:29:53;98427.56;;;10.17;76.59
60589;BME280;46421;48.610;9.334;2023-02-19T03:32:52;98432.88;;;10.25;75.92
60589;BME280;46421;48.610;9.334;2023-02-19T03:35:22;98436.84;;;10.21;76.54
60589;BME280;46421;48.610;9.334;2023-02-19T03:38:00;98436.84;;;10.21;76.85
60589;BME280;46421;48.610;9.334;2023-02-19T03:40:30;98438.16;;;10.09;77.20
60589;BME280;46421;48.610;9.334;2023-02-19T03:43:04;98431.66;;;9.95;78.44
60589;BME280;46421;48.610;9.334;2023-02-19T03:48:24;98444.97;;;10.03;78.30
60589;BME280;46421;48.610;9.334;2023-02-19T03:51:17;98441.94;;;9.81;80.07
60589;BME280;46421;48.610;9.334;2023-02-19T03:53:52;98449.91;;;9.90;79.37
60589;BME280;46421;48.610;9.334;2023-02-19T03:56:27;98447.41;;;9.88;79.61
60589;BME280;46421;48.610;9.334;2023-02-19T03:59:04;98463.97;;;9.74;80.46
60589;BME280;46421;48.610;9.334;2023-02-19T04:01:39;98465.97;;;9.72;81.95
60589;BME280;46421;48.610;9.334;2023-02-19T04:06:35;98478.19;;;9.64;82.74
60589;BME280;46421;48.610;9.334;2023-02-19T04:09:05;98474.38;;;9.59;83.73
60589;BME280;46421;48.610;9.334;2023-02-19T04:11:33;98473.66;;;9.48;83.91
60589;BME280;46421;48.610;9.334;2023-02-19T04:16:36;98480.47;;;9.51;83.89
60589;BME280;46421;48.610;9.334;2023-02-19T04:19:07;98469.84;;;9.51;84.34
60589;BME280;46421;48.610;9.334;2023-02-19T04:21:35;98467.63;;;9.38;85.34
60589;BME280;46421;48.610;9.334;2023-02-19T04:24:05;98479.13;;;9.47;84.82
60589;BME280;46421;48.610;9.334;2023-02-19T04:26:34;98483.50;;;9.56;84.50
60589;BME280;46421;48.610;9.334;2023-02-19T04:29:00;98495.28;;;9.62;83.58
60589;BME280;46421;48.610;9.334;2023-02-19T04:31:26;98491.44;;;9.56;83.82
60589;BME280;46421;48.610;9.334;2023-02-19T04:33:54;98487.31;;;9.62;83.46
60589;BME280;46421;48.610;9.334;2023-02-19T04:36:19;98496.13;;;9.62;83.06
60589;BME280;46421;48.610;9.334;2023-02-19T04:38:44;98492.28;;;9.57;83.36
60589;BME280;46421;48.610;9.334;2023-02-19T04:41:10;98493.00;;;9.67;82.35
60589;BME280;46421;48.610;9.334;2023-02-19T04:43:35;98486.66;;;9.68;81.08
60589;BME280;46421;48.610;9.334;2023-02-19T04:46:01;98499.06;;;9.59;81.12
60589;BME280;46421;48.610;9.334;2023-02-19T04:48:26;98493.59;;;9.61;80.62
60589;BME280;46421;48.610;9.334;2023-02-19T04:50:52;98502.06;;;9.56;81.86
60589;BME280;46421;48.610;9.334;2023-02-19T04:53:17;98497.56;;;9.57;81.04
60589;BME280;46421;48.610;9.334;2023-02-19T04:55:43;98503.09;;;9.63;80.55
60589;BME280;46421;48.610;9.334;2023-02-19T04:58:08;98517.16;;;9.56;81.42
60589;BME280;46421;48.610;9.334;2023-02-19T05:00:33;98510.00;;;9.48;81.80
60589;BME280;46421;48.610;9.334;2023-02-19T05:02:59;98517.66;;;9.59;81.11
60589;BME280;46421;48.610;9.334;2023-02-19T05:05:25;98522.50;;;9.64;81.20
60589;BME280;46421;48.610;9.334;2023-02-19T05:07:50;98516.50;;;9.62;81.71
60589;BME280;46421;48.610;9.334;2023-02-19T05:10:16;98523.47;;;9.63;80.92
60589;BME280;46421;48.610;9.334;2023-02-19T05:12:41;98519.63;;;9.57;80.99
60589;BME280;46421;48.610;9.334;2023-02-19T05:15:07;98523.81;;;9.60;82.29
60589;BME280;46421;48.610;9.334;2023-02-19T05:17:33;98521.47;;;9.57;81.66
60589;BME280;46421;48.610;9.334;2023-02-19T05:19:58;98521.63;;;9.55;82.06
60589;BME280;46421;48.610;9.334;2023-02-19T05:22:24;98512.69;;;9.56;83.16
60589;BME280;46421;48.610;9.334;2023-02-19T05:24:49;98524.38;;;9.45;83.73
60589;BME280;46421;48.610;9.334;2023-02-19T05:27:14;98522.06;;;9.42;83.98
60589;BME280;46421;48.610;9.334;2023-02-19T05:29:40;98525.56;;;9.51;83.86
60589;BME280;46421;48.610;9.334;2023-02-19T05:32:05;98522.75;;;9.53;82.89
60589;BME280;46421;48.610;9.334;2023-02-19T05:34:31;98532.66;;;9.42;83.57
60589;BME280;46421;48.610;9.334;2023-02-19T05:36:56;98536.88;;;9.53;83.10
60589;BME280;46421;48.610;9.334;2023-02-19T05:39:21;98527.94;;;9.54;82.38
60589;BME280;46421;48.610;9.334;2023-02-19T05:41:47;98529.56;;;9.47;82.79
60589;BME280;46421;48.610;9.334;2023-02-19T05:44:12;98530.19;;;9.41;83.45
60589;BME280;46421;48.610;9.334;2023-02-19T05:46:37;98535.16;;;9.44;82.88
60589;BME280;46421;48.610;9.334;2023-02-19T05:49:03;98534.47;;;9.42;83.81
60589;BME280;46421;48.610;9.334;2023-02-19T05:51:28;98529.34;;;9.40;83.29
60589;BME280;46421;48.610;9.334;2023-02-19T05:53:55;98532.97;;;9.39;82.48
60589;BME280;46421;48.610;9.334;2023-02-19T05:58:54;98533.34;;;9.44;81.91
60589;BME280;46421;48.610;9.334;2023-02-19T06:01:22;98542.75;;;9.39;83.16
60589;BME280;46421;48.610;9.334;2023-02-19T06:03:47;98543.28;;;9.42;82.25
60589;BME280;46421;48.610;9.334;2023-02-19T06:06:14;98537.97;;;9.42;82.77
60589;BME280;46421;48.610;9.334;2023-02-19T06:08:40;98532.44;;;9.36;83.05
60589;BME280;46421;48.610;9.334;2023-02-19T06:11:05;98547.44;;;9.45;82.03
60589;BME280;46421;48.610;9.334;2023-02-19T06:13:30;98555.41;;;9.45;81.57
60589;BME280;46421;48.610;9.334;2023-02-19T06:15:56;98547.91;;;9.40;81.43
60589;BME280;46421;48.610;9.334;2023-02-19T06:18:21;98564.81;;;9.39;81.01
60589;BME280;46421;48.610;9.334;2023-02-19T06:20:47;98568.38;;;9.48;81.42
60589;BME280;46421;48.610;9.334;2023-02-19T06:23:12;98569.31;;;9.39;81.71
60589;BME280;46421;48.610;9.334;2023-02-19T06:25:38;98570.13;;;9.39;80.77
60589;BME280;46421;48.610;9.334;2023-02-19T06:28:03;98576.78;;;9.43;82.10
60589;BME280;46421;48.610;9.334;2023-02-19T06:30:29;98581.25;;;9.16;83.82
60589;BME280;46421;48.610;9.334;2023-02-19T06:32:54;98589.88;;;9.18;85.62
60589;BME280;46421;48.610;9.334;2023-02-19T06:35:20;98595.41;;;9.07;85.87
60589;BME280;46421;48.610;9.334;2023-02-19T06:37:46;98605.91;;;9.09;85.35
60589;BME280;46421;48.610;9.334;2023-02-19T06:40:12;98606.19;;;9.06;85.88
60589;BME280;46421;48.610;9.334;2023-02-19T06:42:37;98621.56;;;9.02;85.47
60589;BME280;46421;48.610;9.334;2023-02-19T06:45:03;98612.53;;;9.13;84.11
60589;BME280;46421;48.610;9.334;2023-02-19T06:47:31;98635.50;;;9.22;83.27
60589;BME280;46421;48.610;9.334;2023-02-19T06:49:57;98649.50;;;9.14;84.48
60589;BME280;46421;48.610;9.334;2023-02-19T06:52:23;98646.34;;;9.11;84.02
60589;BME280;46421;48.610;9.334;2023-02-19T06:54:48;98648.09;;;9.02;84.37
60589;BME280;46421;48.610;9.334;2023-02-19T06:57:13;98646.13;;;9.04;84.21
60589;BME280;46421;48.610;9.334;2023-02-19T06:59:39;98663.19;;;9.01;83.60
60589;BME280;46421;48.610;9.334;2023-02-19T07:02:04;98659.84;;;8.99;83.00
60589;BME280;46421;48.610;9.334;2023-02-19T07:04:30;98657.19;;;8.99;82.75
60589;BME280;46421;48.610;9.334;2023-02-19T07:06:55;98662.94;;;9.13;81.15
60589;BME280;46421;48.610;9.334;2023-02-19T07:09:20;98667.88;;;9.08;81.90
60589;BME280;46421;48.610;9.334;2023-02-19T07:11:47;98667.03;;;9.07;80.75
60589;BME280;46421;48.610;9.334;2023-02-19T07:14:14;98672.31;;;9.07;80.71
60589;BME280;46421;48.610;9.334;2023-02-19T07:16:41;98662.25;;;9.11;79.45
60589;BME280;46421;48.610;9.334;2023-02-19T07:19:06;98683.94;;;9.24;79.42
60589;BME280;46421;48.610;9.334;2023-02-19T07:21:31;98685.66;;;8.97;80.19
60589;BME280;46421;48.610;9.334;2023-02-19T07:24:02;98692.19;;;8.85;81.28
60589;BME280;46421;48.610;9.334;2023-02-19T07:26:27;98690.28;;;8.95;81.19
60589;BME280;46421;48.610;9.334;2023-02-19T07:28:52;98692.81;;;9.15;79.42
60589;BME280;46421;48.610;9.334;2023-02-19T07:31:20;98694.84;;;9.21;79.07
60589;BME280;46421;48.610;9.334;2023-02-19T07:33:46;98702.13;;;9.19;79.67
60589;BME280;46421;48.610;9.334;2023-02-19T07:36:12;98692.13;;;9.13;80.72
60589;BME280;46421;48.610;9.334;2023-02-19T07:38:38;98698.03;;;9.07;81.29
60589;BME280;46421;48.610;9.334;2023-02-19T07:41:05;98702.44;;;8.98;81.67
60589;BME280;46421;48.610;9.334;2023-02-19T07:43:33;98687.34;;;8.98;81.06
60589;BME280;46421;48.610;9.334;2023-02-19T07:46:08;98701.41;;;8.99;79.68
60589;BME280;46421;48.610;9.334;2023-02-19T07:48:35;98696.00;;;9.18;79.61
60589;BME280;46421;48.610;9.334;2023-02-19T07:51:01;98687.50;;;9.15;77.18
60589;BME280;46421;48.610;9.334;2023-02-19T07:53:28;98683.47;;;9.11;76.99
60589;BME280;46421;48.610;9.334;2023-02-19T07:55:57;98703.50;;;9.23;76.68
60589;BME280;46421;48.610;9.334;2023-02-19T07:58:22;98696.72;;;9.11;76.52
60589;BME280;46421;48.610;9.334;2023-02-19T08:00:48;98702.47;;;9.06;79.02
60589;BME280;46421;48.610;9.334;2023-02-19T08:03:13;98703.19;;;9.08;77.26
60589;BME280;46421;48.610;9.334;2023-02-19T08:05:40;98706.88;;;9.15;76.83
60589;BME280;46421;48.610;9.334;2023-02-19T08:08:07;98706.00;;;9.07;76.34
60589;BME280;46421;48.610;9.334;2023-02-19T08:10:33;98716.97;;;9.12;77.32
60589;BME280;46421;48.610;9.334;2023-02-19T08:13:17;98716.53;;;9.16;77.66
60589;BME280;46421;48.610;9.334;2023-02-19T08:15:50;98687.41;;;9.07;79.35
60589;BME280;46421;48.610;9.334;2023-02-19T08:18:18;98689.91;;;9.08;80.42
60589;BME280;46421;48.610;9.334;2023-02-19T08:20:44;98696.53;;;9.04;81.64
60589;BME280;46421;48.610;9.334;2023-02-19T08:23:10;98710.00;;;9.11;80.13
60589;BME280;46421;48.610;9.334;2023-02-19T08:25:36;98713.34;;;9.13;79.62
60589;BME280;46421;48.610;9.334;2023-02-19T08:28:02;98714.72;;;9.17;78.34
60589;BME280;46421;48.610;9.334;2023-02-19T08:30:28;98713.22;;;9.32;79.00
60589;BME280;46421;48.610;9.334;2023-02-19T08:32:54;98724.78;;;9.49;77.99
60589;BME280;46421;48.610;9.334;2023-02-19T08:35:20;98730.75;;;9.70;76.32
60589;BME280;46421;48.610;9.334;2023-02-19T08:37:46;98733.56;;;9.68;76.46
60589;BME280;46421;48.610;9.334;2023-02-19T08:40:11;98740.56;;;9.51;75.67
60589;BME280;46421;48.610;9.334;2023-02-19T08:42:37;98742.66;;;9.65;75.96
60589;BME280;46421;48.610;9.334;2023-02-19T08:45:03;98743.66;;;9.46;76.93
60589;BME280;46421;48.610;9.334;2023-02-19T08:47:29;98752.84;;;9.52;77.92
60589;BME280;46421;48.610;9.334;2023-02-19T08:49:54;98745.34;;;9.29;79.33
60589;BME280;46421;48.610;9.334;2023-02-19T08:52:20;98751.78;;;9.09;81.77
60589;BME280;46421;48.610;9.334;2023-02-19T08:54:45;98756.38;;;9.07;83.69
60589;BME280;46421;48.610;9.334;2023-02-19T08:57:10;98758.78;;;9.00;85.00
60589;BME280;46421;48.610;9.334;2023-02-19T08:59:36;98760.69;;;8.90;86.26
60589;BME280;46421;48.610;9.334;2023-02-19T09:02:01;98760.41;;;8.83;85.56
60589;BME280;46421;48.610;9.334;2023-02-19T09:04:26;98764.75;;;8.84;86.58
60589;BME280;46421;48.610;9.334;2023-02-19T09:06:52;98762.72;;;8.96;84.60
60589;BME280;46421;48.610;9.334;2023-02-19T09:09:17;98771.66;;;8.95;84.74
60589;BME280;46421;48.610;9.334;2023-02-19T09:11:43;98774.56;;;9.01;84.15
60589;BME280;46421;48.610;9.334;2023-02-19T09:14:08;98770.34;;;9.09;83.49
60589;BME280;46421;48.610;9.334;2023-02-19T09:16:34;98767.97;;;9.06;82.03
60589;BME280;46421;48.610;9.334;2023-02-19T09:19:00;98760.16;;;9.04;82.55
60589;BME280;46421;48.610;9.334;2023-02-19T09:21:25;98765.94;;;9.36;82.24
60589;BME280;46421;48.610;9.334;2023-02-19T09:23:51;98759.75;;;9.45;78.87
60589;BME280;46421;48.610;9.334;2023-02-19T09:26:16;98775.38;;;9.66;77.79
60589;BME280;46421;48.610;9.334;2023-02-19T09:28:41;98786.44;;;9.61;77.11
60589;BME280;46421;48.610;9.334;2023-02-19T09:31:10;98801.06;;;9.47;76.96
60589;BME280;46421;48.610;9.334;2023-02-19T09:33:36;98797.19;;;9.42;78.87
60589;BME280;46421;48.610;9.334;2023-02-19T09:36:02;98801.31;;;9.54;78.20
60589;BME280;46421;48.610;9.334;2023-02-19T09:38:28;98801.31;;;9.54;76.70
60589;BME280;46421;48.610;9.334;2023-02-19T09:41:05;98809.34;;;9.62;75.18
60589;BME280;46421;48.610;9.334;2023-02-19T09:43:32;98816.44;;;9.80;73.30
60589;BME280;46421;48.610;9.334;2023-02-19T09:46:03;98808.91;;;9.67;73.06
60589;BME280;46421;48.610;9.334;2023-02-19T09:48:31;98812.22;;;9.87;72.24
60589;BME280;46421;48.610;9.334;2023-02-19T09:50:58;98818.66;;;10.03;72.13
60589;BME280;46421;48.610;9.334;2023-02-19T09:53:27;98832.06;;;10.19;70.25
60589;BME280;46421;48.610;9.334;2023-02-19T09:55:52;98829.66;;;10.52;69.19
60589;BME280;46421;48.610;9.334;2023-02-19T09:58:47;98831.94;;;11.08;66.57
60589;BME280;46421;48.610;9.334;2023-02-19T10:01:14;98846.19;;;11.42;63.82
60589;BME280;46421;48.610;9.334;2023-02-19T10:03:43;98847.31;;;12.07;61.70
60589;BME280;46421;48.610;9.334;2023-02-19T10:06:15;98849.63;;;11.26;64.28
60589;BME280;46421;48.610;9.334;2023-02-19T10:08:46;98833.69;;;10.56;65.35
60589;BME280;46421;48.610;9.334;2023-02-19T10:11:12;98839.94;;;10.11;65.10
60589;BME280;46421;48.610;9.334;2023-02-19T10:13:50;98836.88;;;9.97;65.85
60589;BME280;46421;48.610;9.334;2023-02-19T10:16:19;98843.69;;;10.00;67.04
60589;BME280;46421;48.610;9.334;2023-02-19T10:18:46;98851.81;;;9.99;67.37
60589;BME280;46421;48.610;9.334;2023-02-19T10:21:18;98840.22;;;9.81;67.51
60589;BME280;46421;48.610;9.334;2023-02-19T10:23:46;98840.22;;;9.81;65.46
60589;BME280;46421;48.610;9.334;2023-02-19T10:26:13;98846.44;;;9.90;65.66
60589;BME280;46421;48.610;9.334;2023-02-19T10:28:38;98843.63;;;9.92;64.70
60589;BME280;46421;48.610;9.334;2023-02-19T10:31:10;98850.56;;;10.11;67.17
60589;BME280;46421;48.610;9.334;2023-02-19T10:33:49;98847.28;;;9.91;65.78
60589;BME280;46421;48.610;9.334;2023-02-19T10:36:24;98850.53;;;9.85;69.45
60589;BME280;46421;48.610;9.334;2023-02-19T10:38:51;98853.94;;;9.77;73.76
60589;BME280;46421;48.610;9.334;2023-02-19T10:41:22;98860.25;;;9.94;73.33
60589;BME280;46421;48.610;9.334;2023-02-19T10:43:53;98853.94;;;9.77;74.05
60589;BME280;46421;48.610;9.334;2023-02-19T10:46:28;98864.28;;;9.98;74.68
60589;BME280;46421;48.610;9.334;2023-02-19T10:49:03;98863.34;;;9.89;74.07
60589;BME280;46421;48.610;9.334;2023-02-19T10:51:32;98870.41;;;9.99;75.57
60589;BME280;46421;48.610;9.334;2023-02-19T10:56:43;98846.78;;;9.95;73.94
60589;BME280;46421;48.610;9.334;2023-02-19T11:01:59;98845.53;;;9.81;75.52
60589;BME280;46421;48.610;9.334;2023-02-19T11:04:32;98838.69;;;9.97;76.78
60589;BME280;46421;48.610;9.334;2023-02-19T11:07:16;98826.41;;;9.96;75.69
60589;BME280;46421;48.610;9.334;2023-02-19T11:09:44;98826.09;;;9.81;75.77
60589;BME280;46421;48.610;9.334;2023-02-19T11:12:22;98823.00;;;9.68;75.50
60589;BME280;46421;48.610;9.334;2023-02-19T11:14:49;98823.53;;;9.71;74.99
60589;BME280;46421;48.610;9.334;2023-02-19T11:17:26;98829.22;;;9.94;73.88
60589;BME280;46421;48.610;9.334;2023-02-19T11:19:58;98835.66;;;9.92;73.28
60589;BME280;46421;48.610;9.334;2023-02-19T11:22:33;98821.91;;;9.96;71.76
60589;BME280;46421;48.610;9.334;2023-02-19T11:28:38;98832.59;;;10.41;67.41
60589;BME280;46421;48.610;9.334;2023-02-19T11:30:40;98821.56;;;10.97;65.70
60589;BME280;46421;48.610;9.334;2023-02-19T11:35:40;98830.44;;;10.71;64.33
60589;BME280;46421;48.610;9.334;2023-02-19T11:38:09;98843.88;;;10.96;63.20
60589;BME280;46421;48.610;9.334;2023-02-19T11:40:40;98838.53;;;10.96;64.79
60589;BME280;46421;48.610;9.334;2023-02-19T11:43:21;98824.72;;;10.57;63.91
60589;BME280;46421;48.610;9.334;2023-02-19T11:46:01;98828.19;;;10.58;64.38
60589;BME280;46421;48.610;9.334;2023-02-19T11:52:06;98831.06;;;10.65;63.22
60589;BME280;46421;48.610;9.334;2023-02-19T11:57:17;98837.56;;;10.44;63.13
60589;BME280;46421;48.610;9.334;2023-02-19T12:00:17;98849.53;;;10.66;63.53
60589;BME280;46421;48.610;9.334;2023-02-19T12:08:28;98852.44;;;10.55;63.93
60589;BME280;46421;48.610;9.334;2023-02-19T12:11:13;98862.25;;;10.54;63.59
60589;BME280;46421;48.610;9.334;2023-02-19T12:16:40;98876.16;;;10.74;63.70
60589;BME280;46421;48.610;9.334;2023-02-19T12:19:29;98869.53;;;10.79;61.87
60589;BME280;46421;48.610;9.334;2023-02-19T12:30:58;98854.84;;;11.01;59.97
60589;BME280;46421;48.610;9.334;2023-02-19T12:36:19;98827.69;;;11.32;58.47
60589;BME280;46421;48.610;9.334;2023-02-19T12:41:38;98824.97;;;11.83;55.79
60589;BME280;46421;48.610;9.334;2023-02-19T12:44:15;98813.81;;;11.96;55.86
60589;BME280;46421;48.610;9.334;2023-02-19T12:46:45;98802.13;;;12.38;53.94
60589;BME280;46421;48.610;9.334;2023-02-19T12:49:24;98818.00;;;12.31;54.21
60589;BME280;46421;48.610;9.334;2023-02-19T12:52:00;98819.47;;;12.42;53.55
60589;BME280;46421;48.610;9.334;2023-02-19T12:54:34;98818.50;;;12.35;55.13
60589;BME280;46421;48.610;9.334;2023-02-19T12:57:03;98825.31;;;12.13;54.72
60589;BME280;46421;48.610;9.334;2023-02-19T13:02:26;98819.81;;;12.23;54.68
60589;BME280;46421;48.610;9.334;2023-02-19T13:07:43;98814.50;;;11.98;54.36
60589;BME280;46421;48.610;9.334;2023-02-19T13:10:27;98815.66;;;12.28;54.51
60589;BME280;46421;48.610;9.334;2023-02-19T13:13:00;98795.66;;;12.89;52.46
60589;BME280;46421;48.610;9.334;2023-02-19T13:15:35;98813.44;;;13.44;49.74
60589;BME280;46421;48.610;9.334;2023-02-19T13:18:04;98809.34;;;14.03;49.50
60589;BME280;46421;48.610;9.334;2023-02-19T13:20:34;98802.19;;;14.19;47.94
60589;BME280;46421;48.610;9.334;2023-02-19T13:23:23;98816.22;;;13.51;49.90
60589;BME280;46421;48.610;9.334;2023-02-19T13:26:37;98805.19;;;12.83;52.57
60589;BME280;46421;48.610;9.334;2023-02-19T13:29:36;98812.63;;;11.82;54.08
60589;BME280;46421;48.610;9.334;2023-02-19T13:38:04;98815.78;;;12.52;53.36
60589;BME280;46421;48.610;9.334;2023-02-19T13:40:51;98828.16;;;12.20;52.55
60589;BME280;46421;48.610;9.334;2023-02-19T13:43:30;98822.09;;;11.68;55.13
60589;BME280;46421;48.610;9.334;2023-02-19T13:46:09;98820.81;;;11.80;55.44
60589;BME280;46421;48.610;9.334;2023-02-19T13:48:38;98829.81;;;11.96;54.93
60589;BME280;46421;48.610;9.334;2023-02-19T13:56:35;98813.78;;;11.71;54.93
60589;BME280;46421;48.610;9.334;2023-02-19T14:14:46;98814.13;;;11.08;55.35
60589;BME280;46421;48.610;9.334;2023-02-19T14:17:38;98814.81;;;11.11;56.45
60589;BME280;46421;48.610;9.334;2023-02-19T14:27:48;98811.44;;;10.92;56.67
60589;BME280;46421;48.610;9.334;2023-02-19T14:30:15;98809.41;;;10.94;56.25
60589;BME280;46421;48.610;9.334;2023-02-19T14:32:42;98801.31;;;10.96;55.49
60589;BME280;46421;48.610;9.334;2023-02-19T14:35:23;98811.66;;;11.15;55.52
60589;BME280;46421;48.610;9.334;2023-02-19T14:37:51;98813.78;;;11.03;54.72
60589;BME280;46421;48.610;9.334;2023-02-19T14:40:31;98815.50;;;11.13;57.17
60589;BME280;46421;48.610;9.334;2023-02-19T14:42:58;98837.38;;;10.98;55.03
60589;BME280;46421;48.610;9.334;2023-02-19T14:45:26;98852.47;;;10.89;55.95
60589;BME280;46421;48.610;9.334;2023-02-19T14:47:53;98841.41;;;10.76;56.08
60589;BME280;46421;48.610;9.334;2023-02-19T14:50:27;98847.09;;;10.81;56.74
60589;BME280;46421;48.610;9.334;2023-02-19T14:52:54;98846.69;;;10.68;56.25
60589;BME280;46421;48.610;9.334;2023-02-19T14:55:30;98832.41;;;10.69;56.83
60589;BME280;46421;48.610;9.334;2023-02-19T14:58:00;98836.78;;;10.78;57.61
60589;BME280;46421;48.610;9.334;2023-02-19T15:00:36;98843.78;;;10.79;57.57
60589;BME280;46421;48.610;9.334;2023-02-19T15:03:02;98851.06;;;10.77;58.26
60589;BME280;46421;48.610;9.334;2023-02-19T15:05:34;98861.72;;;10.77;59.29